sensor_id;sensor_type;location;lat;lon;timestamp;pressure;altitude;pressure_sealevel;temperature;humidity
55079;BME280;55187;49.496;6.010;2023-01-24T02:59:56;99000.56;;;-0.86;100.00
55079;BME280;55187;49.496;6.010;2023-01-24T03:02:23;99000.91;;;-0.92;100.00
55079;BME280;55187;49.496;6.010;2023-01-24T03:04:50;98994.41;;;-1.00;100.00
55079;BME280;55187;49.496;6.010;2023-01-24T03:07:18;99001.44;;;-1.20;100.00
55079;BME280;55187;49.496;6.010;2023-01-24T03:09:50;98986.16;;;-1.09;100.00
55079;BME280;55187;49.496;6.010;2023-01-24T03:12:21;99000.38;;;-1.16;100.00
55079;BME280;55187;49.496;6.010;2023-01-24T03:15:06;98993.91;;;-1.24;100.00
55079;BME280;55187;49.496;6.010;2023-01-24T03:17:51;98991.69;;;-1.15;100.00
55079;BME280;55187;49.496;6.010;2023-01-24T03:20:36;98989.78;;;-1.29;100.00
55079;BME280;55187;49.496;6.010;2023-01-24T03:23:21;98992.22;;;-1.25;100.00
55079;BME280;55187;49.496;6.010;2023-01-24T03:26:07;98992.59;;;-1.16;100.00
55079;BME280;55187;49.496;6.010;2023-01-24T03:28:52;99006.75;;;-1.21;100.00
55079;BME280;55187;49.496;6.010;2023-01-24T03:31:37;99000.38;;;-1.16;100.00
55079;BME280;55187;49.496;6.010;2023-01-24T03:34:25;99004.03;;;-1.20;100.00
55079;BME280;55187;49.496;6.010;2023-01-24T03:37:12;98998.66;;;-1.33;100.00
55079;BME280;55187;49.496;6.010;2023-01-24T03:39:39;98997.81;;;-1.33;100.00
55079;BME280;55187;49.496;6.010;2023-01-24T03:42:26;99009.63;;;-1.28;100.00
55079;BME280;55187;49.496;6.010;2023-01-24T03:44:53;99006.28;;;-1.30;100.00
55079;BME280;55187;49.496;6.010;2023-01-24T03:47:20;99018.59;;;-1.33;100.00
55079;BME280;55187;49.496;6.010;2023-01-24T03:49:46;99018.66;;;-1.35;100.00
55079;BME280;55187;49.496;6.010;2023-01-24T03:52:31;99013.94;;;-1.27;100.00
55079;BME280;55187;49.496;6.010;2023-01-24T03:55:04;99018.25;;;-1.27;100.00
55079;BME280;55187;49.496;6.010;2023-01-24T03:57:33;99020.19;;;-1.31;100.00
55079;BME280;55187;49.496;6.010;2023-01-24T04:00:05;99021.19;;;-1.33;100.00
55079;BME280;55187;49.496;6.010;2023-01-24T04:02:43;99023.63;;;-1.30;100.00
55079;BME280;55187;49.496;6.010;2023-01-24T04:05:10;99022.84;;;-1.32;100.00
55079;BME280;55187;49.496;6.010;2023-01-24T04:07:40;99018.44;;;-1.13;100.00
55079;BME280;55187;49.496;6.010;2023-01-24T04:10:08;99018.13;;;-1.24;100.00
55079;BME280;55187;49.496;6.010;2023-01-24T04:12:40;99021.41;;;-1.20;100.00
55079;BME280;55187;49.496;6.010;2023-01-24T04:15:08;99017.13;;;-1.21;100.00
55079;BME280;55187;49.496;6.010;2023-01-24T04:17:34;99007.97;;;-1.29;100.00
55079;BME280;55187;49.496;6.010;2023-01-24T04:20:04;99014.19;;;-1.15;100.00
55079;BME280;55187;49.496;6.010;2023-01-24T04:22:30;99016.44;;;-1.25;100.00
55079;BME280;55187;49.496;6.010;2023-01-24T04:25:00;99013.03;;;-0.92;100.00
55079;BME280;55187;49.496;6.010;2023-01-24T04:27:30;99015.19;;;-1.00;100.00
55079;BME280;55187;49.496;6.010;2023-01-24T04:30:14;99011.06;;;-1.04;100.00
55079;BME280;55187;49.496;6.010;2023-01-24T04:32:43;99011.00;;;-1.03;100.00
55079;BME280;55187;49.496;6.010;2023-01-24T04:35:28;99010.06;;;-1.02;100.00
55079;BME280;55187;49.496;6.010;2023-01-24T04:38:00;99016.91;;;-1.17;100.00
55079;BME280;55187;49.496;6.010;2023-01-24T04:40:46;99026.50;;;-1.01;100.00
55079;BME280;55187;49.496;6.010;2023-01-24T04:43:14;99020.84;;;-1.10;100.00
55079;BME280;55187;49.496;6.010;2023-01-24T04:45:44;99021.69;;;-1.09;100.00
55079;BME280;55187;49.496;6.010;2023-01-24T04:48:14;99025.28;;;-1.12;100.00
55079;BME280;55187;49.496;6.010;2023-01-24T04:50:41;99027.81;;;-1.10;100.00
55079;BME280;55187;49.496;6.010;2023-01-24T04:53:07;99028.13;;;-1.16;100.00
55079;BME280;55187;49.496;6.010;2023-01-24T04:55:35;99018.31;;;-1.11;100.00
55079;BME280;55187;49.496;6.010;2023-01-24T04:58:01;99022.94;;;-1.16;100.00
55079;BME280;55187;49.496;6.010;2023-01-24T05:00:27;99025.28;;;-1.29;100.00
55079;BME280;55187;49.496;6.010;2023-01-24T05:02:55;99025.22;;;-1.10;100.00
55079;BME280;55187;49.496;6.010;2023-01-24T05:05:23;99023.81;;;-1.00;100.00
55079;BME280;55187;49.496;6.010;2023-01-24T05:07:50;99017.03;;;-1.20;100.00
55079;BME280;55187;49.496;6.010;2023-01-24T05:10:18;99019.84;;;-1.07;100.00
55079;BME280;55187;49.496;6.010;2023-01-24T05:12:47;99020.31;;;-0.99;100.00
55079;BME280;55187;49.496;6.010;2023-01-24T05:15:18;99018.56;;;-1.16;100.00
55079;BME280;55187;49.496;6.010;2023-01-24T05:17:48;99017.03;;;-1.20;100.00
55079;BME280;55187;49.496;6.010;2023-01-24T05:20:18;99026.69;;;-1.22;100.00
55079;BME280;55187;49.496;6.010;2023-01-24T05:22:44;99021.16;;;-1.16;100.00
55079;BME280;55187;49.496;6.010;2023-01-24T05:25:15;99029.28;;;-1.22;100.00
55079;BME280;55187;49.496;6.010;2023-01-24T05:27:42;99036.31;;;-1.24;100.00
55079;BME280;55187;49.496;6.010;2023-01-24T05:30:10;99030.97;;;-0.88;100.00
55079;BME280;55187;49.496;6.010;2023-01-24T05:32:40;99044.00;;;-1.05;100.00
55079;BME280;55187;49.496;6.010;2023-01-24T05:35:07;99040.41;;;-1.20;100.00
55079;BME280;55187;49.496;6.010;2023-01-24T05:37:38;99030.25;;;-1.24;100.00
55079;BME280;55187;49.496;6.010;2023-01-24T05:40:06;99035.44;;;-1.24;100.00
55079;BME280;55187;49.496;6.010;2023-01-24T05:42:32;99045.94;;;-1.26;100.00
55079;BME280;55187;49.496;6.010;2023-01-24T05:44:59;99053.56;;;-1.23;100.00
55079;BME280;55187;49.496;6.010;2023-01-24T05:47:25;99047.53;;;-1.23;100.00
55079;BME280;55187;49.496;6.010;2023-01-24T05:49:52;99053.50;;;-1.21;100.00
55079;BME280;55187;49.496;6.010;2023-01-24T05:52:20;99055.38;;;-1.25;100.00
55079;BME280;55187;49.496;6.010;2023-01-24T05:54:51;99061.50;;;-1.26;100.00
55079;BME280;55187;49.496;6.010;2023-01-24T05:57:24;99061.50;;;-1.09;100.00
55079;BME280;55187;49.496;6.010;2023-01-24T06:00:10;99061.94;;;-1.18;100.00
55079;BME280;55187;49.496;6.010;2023-01-24T06:03:01;99072.97;;;-1.30;100.00
55079;BME280;55187;49.496;6.010;2023-01-24T06:05:30;99064.72;;;-1.21;100.00
55079;BME280;55187;49.496;6.010;2023-01-24T06:07:56;99078.69;;;-1.06;100.00
55079;BME280;55187;49.496;6.010;2023-01-24T06:10:23;99068.75;;;-1.33;100.00
55079;BME280;55187;49.496;6.010;2023-01-24T06:13:18;99074.41;;;-1.24;100.00
55079;BME280;55187;49.496;6.010;2023-01-24T06:15:45;99080.22;;;-1.19;100.00
55079;BME280;55187;49.496;6.010;2023-01-24T06:18:15;99087.63;;;-1.29;100.00
55079;BME280;55187;49.496;6.010;2023-01-24T06:20:44;99080.78;;;-1.13;100.00
55079;BME280;55187;49.496;6.010;2023-01-24T06:23:24;99083.50;;;-1.16;100.00
55079;BME280;55187;49.496;6.010;2023-01-24T06:25:55;99087.41;;;-1.07;100.00
55079;BME280;55187;49.496;6.010;2023-01-24T06:28:22;99083.59;;;-1.17;100.00
55079;BME280;55187;49.496;6.010;2023-01-24T06:30:58;99087.25;;;-1.21;100.00
55079;BME280;55187;49.496;6.010;2023-01-24T06:36:24;99084.50;;;-1.01;100.00
55079;BME280;55187;49.496;6.010;2023-01-24T06:38:52;99092.44;;;-1.04;100.00
55079;BME280;55187;49.496;6.010;2023-01-24T06:41:19;99100.38;;;-1.24;100.00
55079;BME280;55187;49.496;6.010;2023-01-24T06:43:46;99097.81;;;-0.90;100.00
55079;BME280;55187;49.496;6.010;2023-01-24T06:46:13;99103.53;;;-1.00;100.00
55079;BME280;55187;49.496;6.010;2023-01-24T06:48:42;99102.50;;;-1.15;100.00
55079;BME280;55187;49.496;6.010;2023-01-24T06:51:12;99110.53;;;-1.37;100.00
55079;BME280;55187;49.496;6.010;2023-01-24T06:53:40;99101.53;;;-1.30;100.00
55079;BME280;55187;49.496;6.010;2023-01-24T06:56:07;99104.66;;;-1.23;100.00
55079;BME280;55187;49.496;6.010;2023-01-24T06:58:34;99111.25;;;-1.16;100.00
55079;BME280;55187;49.496;6.010;2023-01-24T07:01:01;99105.56;;;-1.24;100.00
55079;BME280;55187;49.496;6.010;2023-01-24T07:03:27;99110.03;;;-1.27;100.00
55079;BME280;55187;49.496;6.010;2023-01-24T07:05:54;99097.72;;;-1.23;100.00
55079;BME280;55187;49.496;6.010;2023-01-24T07:08:20;99101.81;;;-1.36;100.00
55079;BME280;55187;49.496;6.010;2023-01-24T07:10:47;99099.22;;;-1.36;100.00
55079;BME280;55187;49.496;6.010;2023-01-24T07:13:14;99100.97;;;-1.37;100.00
55079;BME280;55187;49.496;6.010;2023-01-24T07:15:41;99109.25;;;-1.11;100.00
55079;BME280;55187;49.496;6.010;2023-01-24T07:18:08;99106.34;;;-1.22;100.00
55079;BME280;55187;49.496;6.010;2023-01-24T07:20:37;99107.13;;;-1.03;100.00
55079;BME280;55187;49.496;6.010;2023-01-24T07:23:03;99108.94;;;-1.22;100.00
55079;BME280;55187;49.496;6.010;2023-01-24T07:25:30;99118.03;;;-1.31;100.00
55079;BME280;55187;49.496;6.010;2023-01-24T07:27:57;99112.19;;;-1.36;100.00
55079;BME280;55187;49.496;6.010;2023-01-24T07:30:24;99126.94;;;-1.37;100.00
55079;BME280;55187;49.496;6.010;2023-01-24T07:32:50;99129.94;;;-1.27;100.00
55079;BME280;55187;49.496;6.010;2023-01-24T07:35:16;99137.38;;;-1.02;100.00
55079;BME280;55187;49.496;6.010;2023-01-24T07:37:43;99143.09;;;-0.95;100.00
55079;BME280;55187;49.496;6.010;2023-01-24T07:40:10;99134.44;;;-1.13;100.00
55079;BME280;55187;49.496;6.010;2023-01-24T07:42:37;99147.00;;;-1.21;100.00
55079;BME280;55187;49.496;6.010;2023-01-24T07:45:04;99135.78;;;-1.22;100.00
55079;BME280;55187;49.496;6.010;2023-01-24T07:47:30;99145.84;;;-1.16;100.00
55079;BME280;55187;49.496;6.010;2023-01-24T07:49:57;99151.41;;;-1.23;100.00
55079;BME280;55187;49.496;6.010;2023-01-24T07:52:24;99154.44;;;-0.96;100.00
55079;BME280;55187;49.496;6.010;2023-01-24T07:54:50;99149.38;;;-1.17;100.00
55079;BME280;55187;49.496;6.010;2023-01-24T07:57:16;99146.66;;;-1.15;100.00
55079;BME280;55187;49.496;6.010;2023-01-24T07:59:43;99150.19;;;-1.16;100.00
55079;BME280;55187;49.496;6.010;2023-01-24T08:02:10;99153.72;;;-1.17;100.00
55079;BME280;55187;49.496;6.010;2023-01-24T08:04:38;99153.41;;;-1.11;100.00
55079;BME280;55187;49.496;6.010;2023-01-24T08:07:04;99163.25;;;-1.18;100.00
55079;BME280;55187;49.496;6.010;2023-01-24T08:09:45;99156.94;;;-1.12;100.00
55079;BME280;55187;49.496;6.010;2023-01-24T08:12:11;99161.34;;;-1.14;100.00
55079;BME280;55187;49.496;6.010;2023-01-24T08:14:38;99163.91;;;-1.13;100.00
55079;BME280;55187;49.496;6.010;2023-01-24T08:17:05;99163.44;;;-1.03;100.00
55079;BME280;55187;49.496;6.010;2023-01-24T08:19:31;99163.38;;;-0.85;100.00
55079;BME280;55187;49.496;6.010;2023-01-24T08:21:58;99169.69;;;-0.90;100.00
55079;BME280;55187;49.496;6.010;2023-01-24T08:24:24;99168.41;;;-0.81;100.00
55079;BME280;55187;49.496;6.010;2023-01-24T08:26:51;99176.56;;;-1.07;100.00
55079;BME280;55187;49.496;6.010;2023-01-24T08:29:17;99175.06;;;-0.93;100.00
55079;BME280;55187;49.496;6.010;2023-01-24T08:31:44;99172.63;;;-0.96;100.00
55079;BME280;55187;49.496;6.010;2023-01-24T08:34:10;99170.84;;;-0.96;100.00
55079;BME280;55187;49.496;6.010;2023-01-24T08:36:37;99167.88;;;-0.88;100.00
55079;BME280;55187;49.496;6.010;2023-01-24T08:39:03;99176.59;;;-0.89;100.00
55079;BME280;55187;49.496;6.010;2023-01-24T08:41:30;99180.63;;;-0.83;100.00
55079;BME280;55187;49.496;6.010;2023-01-24T08:43:57;99177.97;;;-0.82;100.00
55079;BME280;55187;49.496;6.010;2023-01-24T08:46:23;99168.88;;;-0.73;100.00
55079;BME280;55187;49.496;6.010;2023-01-24T08:48:50;99161.44;;;-0.81;100.00
55079;BME280;55187;49.496;6.010;2023-01-24T08:51:16;99171.16;;;-0.85;100.00
55079;BME280;55187;49.496;6.010;2023-01-24T08:53:42;99165.19;;;-0.69;100.00
55079;BME280;55187;49.496;6.010;2023-01-24T08:56:09;99163.13;;;-0.97;100.00
55079;BME280;55187;49.496;6.010;2023-01-24T09:01:18;99169.34;;;-0.82;100.00
55079;BME280;55187;49.496;6.010;2023-01-24T09:03:46;99172.59;;;-0.79;100.00
55079;BME280;55187;49.496;6.010;2023-01-24T09:06:14;99173.00;;;-0.87;100.00
55079;BME280;55187;49.496;6.010;2023-01-24T09:08:41;99175.97;;;-0.77;100.00
55079;BME280;55187;49.496;6.010;2023-01-24T09:11:08;99184.94;;;-0.82;100.00
55079;BME280;55187;49.496;6.010;2023-01-24T09:13:35;99185.09;;;-0.68;100.00
55079;BME280;55187;49.496;6.010;2023-01-24T09:16:01;99178.41;;;-0.74;100.00
55079;BME280;55187;49.496;6.010;2023-01-24T09:18:27;99177.59;;;-0.74;100.00
55079;BME280;55187;49.496;6.010;2023-01-24T09:20:54;99173.09;;;-0.71;100.00
55079;BME280;55187;49.496;6.010;2023-01-24T09:23:20;99178.41;;;-0.56;100.00
55079;BME280;55187;49.496;6.010;2023-01-24T09:25:51;99172.22;;;-0.54;100.00
55079;BME280;55187;49.496;6.010;2023-01-24T09:28:18;99172.16;;;-0.52;100.00
55079;BME280;55187;49.496;6.010;2023-01-24T09:30:47;99173.00;;;-0.52;100.00
55079;BME280;55187;49.496;6.010;2023-01-24T09:33:15;99173.59;;;-0.47;100.00
55079;BME280;55187;49.496;6.010;2023-01-24T09:35:59;99172.34;;;-0.39;100.00
55079;BME280;55187;49.496;6.010;2023-01-24T09:38:28;99180.06;;;-0.20;100.00
55079;BME280;55187;49.496;6.010;2023-01-24T09:41:02;99168.28;;;-0.28;100.00
55079;BME280;55187;49.496;6.010;2023-01-24T09:48:48;99176.72;;;-0.23;100.00
55079;BME280;55187;49.496;6.010;2023-01-24T09:51:28;99178.47;;;-0.07;100.00
55079;BME280;55187;49.496;6.010;2023-01-24T09:53:58;99179.34;;;-0.07;100.00
55079;BME280;55187;49.496;6.010;2023-01-24T09:56:33;99186.47;;;-0.10;100.00
55079;BME280;55187;49.496;6.010;2023-01-24T09:59:19;99181.56;;;-0.16;100.00
55079;BME280;55187;49.496;6.010;2023-01-24T10:01:47;99182.25;;;-0.13;100.00
55079;BME280;55187;49.496;6.010;2023-01-24T10:04:38;99203.19;;;0.02;100.00
55079;BME280;55187;49.496;6.010;2023-01-24T10:10:00;99192.34;;;-0.07;100.00
55079;BME280;55187;49.496;6.010;2023-01-24T10:20:46;99198.53;;;-0.09;100.00
55079;BME280;55187;49.496;6.010;2023-01-24T10:23:21;99192.25;;;-0.05;100.00
55079;BME280;55187;49.496;6.010;2023-01-24T10:26:01;99202.59;;;-0.04;100.00
55079;BME280;55187;49.496;6.010;2023-01-24T10:28:36;99199.19;;;0.12;100.00
55079;BME280;55187;49.496;6.010;2023-01-24T10:31:09;99196.88;;;-0.10;100.00
55079;BME280;55187;49.496;6.010;2023-01-24T10:33:43;99193.31;;;0.08;100.00
55079;BME280;55187;49.496;6.010;2023-01-24T10:36:23;99198.81;;;0.02;100.00
55079;BME280;55187;49.496;6.010;2023-01-24T10:38:52;99206.91;;;0.13;100.00
55079;BME280;55187;49.496;6.010;2023-01-24T10:41:24;99198.00;;;0.02;100.00
55079;BME280;55187;49.496;6.010;2023-01-24T10:43:59;99198.09;;;0.16;100.00
55079;BME280;55187;49.496;6.010;2023-01-24T10:49:34;99190.53;;;0.11;100.00
55079;BME280;55187;49.496;6.010;2023-01-24T10:52:18;99194.91;;;0.11;100.00
55079;BME280;55187;49.496;6.010;2023-01-24T10:54:54;99186.25;;;0.10;100.00
55079;BME280;55187;49.496;6.010;2023-01-24T10:57:37;99193.91;;;0.29;100.00
55079;BME280;55187;49.496;6.010;2023-01-24T11:00:27;99181.75;;;0.46;100.00
55079;BME280;55187;49.496;6.010;2023-01-24T11:03:04;99183.94;;;0.37;100.00
55079;BME280;55187;49.496;6.010;2023-01-24T11:05:53;99190.66;;;0.57;100.00
55079;BME280;55187;49.496;6.010;2023-01-24T11:08:34;99189.03;;;0.39;100.00
55079;BME280;55187;49.496;6.010;2023-01-24T11:11:01;99184.09;;;0.18;100.00
55079;BME280;55187;49.496;6.010;2023-01-24T11:13:37;99193.59;;;0.35;100.00
55079;BME280;55187;49.496;6.010;2023-01-24T11:16:30;99189.97;;;0.22;100.00
55079;BME280;55187;49.496;6.010;2023-01-24T11:19:00;99183.84;;;0.23;100.00
55079;BME280;55187;49.496;6.010;2023-01-24T11:21:29;99185.66;;;0.05;100.00
55079;BME280;55187;49.496;6.010;2023-01-24T11:26:55;99180.91;;;0.29;100.00
55079;BME280;55187;49.496;6.010;2023-01-24T11:29:23;99175.03;;;0.26;100.00
55079;BME280;55187;49.496;6.010;2023-01-24T11:31:54;99181.50;;;0.18;100.00
55079;BME280;55187;49.496;6.010;2023-01-24T11:37:18;99160.56;;;0.36;100.00
55079;BME280;55187;49.496;6.010;2023-01-24T11:42:42;99172.25;;;0.45;100.00
55079;BME280;55187;49.496;6.010;2023-01-24T11:50:56;99157.22;;;0.66;100.00
55079;BME280;55187;49.496;6.010;2023-01-24T11:53:36;99153.28;;;0.58;100.00
55079;BME280;55187;49.496;6.010;2023-01-24T12:02:11;99143.88;;;1.02;100.00
55079;BME280;55187;49.496;6.010;2023-01-24T12:05:10;99140.00;;;0.47;100.00
55079;BME280;55187;49.496;6.010;2023-01-24T12:22:28;99124.06;;;1.14;100.00
55079;BME280;55187;49.496;6.010;2023-01-24T12:25:10;99125.25;;;1.08;100.00
55079;BME280;55187;49.496;6.010;2023-01-24T12:27:42;99124.72;;;0.87;100.00
55079;BME280;55187;49.496;6.010;2023-01-24T12:33:44;99127.94;;;0.92;100.00
55079;BME280;55187;49.496;6.010;2023-01-24T12:36:24;99113.00;;;0.94;100.00
55079;BME280;55187;49.496;6.010;2023-01-24T12:38:54;99115.69;;;1.09;100.00
55079;BME280;55187;49.496;6.010;2023-01-24T12:41:33;99117.00;;;1.16;100.00
55079;BME280;55187;49.496;6.010;2023-01-24T12:44:34;99108.22;;;1.02;100.00
55079;BME280;55187;49.496;6.010;2023-01-24T12:47:20;99111.13;;;1.12;100.00
55079;BME280;55187;49.496;6.010;2023-01-24T12:52:52;99105.47;;;0.90;100.00
55079;BME280;55187;49.496;6.010;2023-01-24T12:55:36;99108.56;;;0.96;100.00
55079;BME280;55187;49.496;6.010;2023-01-24T12:58:14;99117.31;;;0.65;100.00
55079;BME280;55187;49.496;6.010;2023-01-24T13:00:49;99116.09;;;1.01;100.00
55079;BME280;55187;49.496;6.010;2023-01-24T13:09:02;99127.22;;;0.27;100.00
55079;BME280;55187;49.496;6.010;2023-01-24T13:11:42;99117.06;;;0.38;100.00
55079;BME280;55187;49.496;6.010;2023-01-24T13:14:31;99121.06;;;0.59;100.00
55079;BME280;55187;49.496;6.010;2023-01-24T13:17:18;99124.53;;;0.60;100.00
55079;BME280;55187;49.496;6.010;2023-01-24T13:20:06;99130.09;;;0.38;100.00
55079;BME280;55187;49.496;6.010;2023-01-24T13:22:47;99129.84;;;0.43;100.00
55079;BME280;55187;49.496;6.010;2023-01-24T13:33:20;99127.72;;;0.65;100.00
55079;BME280;55187;49.496;6.010;2023-01-24T13:35:50;99121.69;;;0.49;100.00
55079;BME280;55187;49.496;6.010;2023-01-24T13:38:27;99132.19;;;0.63;100.00
55079;BME280;55187;49.496;6.010;2023-01-24T13:41:02;99130.00;;;0.55;100.00
55079;BME280;55187;49.496;6.010;2023-01-24T13:46:02;99139.00;;;0.34;100.00
55079;BME280;55187;49.496;6.010;2023-01-24T13:54:20;99126.22;;;0.45;100.00
55079;BME280;55187;49.496;6.010;2023-01-24T14:01:54;99136.13;;;0.23;100.00
55079;BME280;55187;49.496;6.010;2023-01-24T14:04:42;99134.13;;;0.12;100.00
55079;BME280;55187;49.496;6.010;2023-01-24T14:07:17;99143.69;;;0.43;100.00
55079;BME280;55187;49.496;6.010;2023-01-24T14:09:45;99136.97;;;0.55;100.00
55079;BME280;55187;49.496;6.010;2023-01-24T14:12:17;99132.25;;;0.46;100.00
55079;BME280;55187;49.496;6.010;2023-01-24T14:15:13;99133.13;;;0.30;100.00
55079;BME280;55187;49.496;6.010;2023-01-24T14:17:50;99135.97;;;0.26;100.00
55079;BME280;55187;49.496;6.010;2023-01-24T16:47:15;99169.09;;;-0.43;100.00
55079;BME280;55187;49.496;6.010;2023-01-24T16:49:41;99177.19;;;-0.49;100.00
55079;BME280;55187;49.496;6.010;2023-01-24T16:52:07;99174.06;;;-0.56;100.00
55079;BME280;55187;49.496;6.010;2023-01-24T16:54:34;99186.16;;;-0.55;100.00
55079;BME280;55187;49.496;6.010;2023-01-24T16:57:00;99185.44;;;-0.58;100.00
55079;BME280;55187;49.496;6.010;2023-01-24T16:59:27;99180.03;;;-0.54;100.00
55079;BME280;55187;49.496;6.010;2023-01-24T17:04:17;99196.38;;;-0.34;100.00
55079;BME280;55187;49.496;6.010;2023-01-24T17:06:44;99179.91;;;-0.35;100.00
55079;BME280;55187;49.496;6.010;2023-01-24T17:09:10;99192.16;;;-0.37;100.00
55079;BME280;55187;49.496;6.010;2023-01-24T17:11:37;99189.19;;;-0.47;100.00
55079;BME280;55187;49.496;6.010;2023-01-24T17:14:03;99193.09;;;-0.55;100.00
55079;BME280;55187;49.496;6.010;2023-01-24T17:16:30;99198.47;;;-0.41;100.00
55079;BME280;55187;49.496;6.010;2023-01-24T17:18:56;99196.91;;;-0.63;100.00
55079;BME280;55187;49.496;6.010;2023-01-24T17:21:25;99210.56;;;-0.57;100.00
55079;BME280;55187;49.496;6.010;2023-01-24T17:23:54;99206.09;;;-0.73;100.00
55079;BME280;55187;49.496;6.010;2023-01-24T17:26:21;99215.13;;;-0.63;100.00
55079;BME280;55187;49.496;6.010;2023-01-24T17:28:47;99208.78;;;-0.74;100.00
55079;BME280;55187;49.496;6.010;2023-01-24T17:31:17;99210.81;;;-0.46;100.00
55079;BME280;55187;49.496;6.010;2023-01-24T17:33:45;99216.94;;;-0.65;100.00
55079;BME280;55187;49.496;6.010;2023-01-24T17:36:12;99210.91;;;-0.65;100.00
55079;BME280;55187;49.496;6.010;2023-01-24T17:38:40;99212.97;;;-0.72;100.00
55079;BME280;55187;49.496;6.010;2023-01-24T17:41:16;99217.25;;;-0.53;100.00
55079;BME280;55187;49.496;6.010;2023-01-24T17:43:42;99211.28;;;-0.55;100.00
55079;BME280;55187;49.496;6.010;2023-01-24T17:46:09;99216.66;;;-0.58;100.00
55079;BME280;55187;49.496;6.010;2023-01-24T17:48:36;99221.47;;;-0.68;100.00
55079;BME280;55187;49.496;6.010;2023-01-24T17:51:11;99224.06;;;-0.68;100.00
55079;BME280;55187;49.496;6.010;2023-01-24T17:53:44;99212.38;;;-0.59;100.00
55079;BME280;55187;49.496;6.010;2023-01-24T17:56:12;99221.63;;;-0.71;100.00
55079;BME280;55187;49.496;6.010;2023-01-24T17:58:39;99221.31;;;-0.65;100.00
55079;BME280;55187;49.496;6.010;2023-01-24T18:01:06;99219.25;;;-0.58;100.00
55079;BME280;55187;49.496;6.010;2023-01-24T18:04:36;99213.06;;;-0.73;100.00
55079;BME280;55187;49.496;6.010;2023-01-24T18:07:02;99214.19;;;-0.79;100.00
55079;BME280;55187;49.496;6.010;2023-01-24T18:09:29;99211.31;;;-0.73;100.00
55079;BME280;55187;49.496;6.010;2023-01-24T18:11:55;99215.28;;;-0.66;100.00
55079;BME280;55187;49.496;6.010;2023-01-24T18:14:22;99214.97;;;-0.77;100.00
55079;BME280;55187;49.496;6.010;2023-01-24T18:16:51;99228.34;;;-0.67;100.00
55079;BME280;55187;49.496;6.010;2023-01-24T18:19:17;99220.63;;;-0.69;100.00
55079;BME280;55187;49.496;6.010;2023-01-24T18:21:44;99224.38;;;-0.74;100.00
55079;BME280;55187;49.496;6.010;2023-01-24T18:24:10;99220.09;;;-0.75;100.00
55079;BME280;55187;49.496;6.010;2023-01-24T18:26:37;99222.91;;;-0.63;100.00
55079;BME280;55187;49.496;6.010;2023-01-24T18:29:03;99221.63;;;-0.71;100.00
55079;BME280;55187;49.496;6.010;2023-01-24T18:31:30;99220.94;;;-0.75;100.00
55079;BME280;55187;49.496;6.010;2023-01-24T18:33:57;99220.03;;;-0.56;100.00
55079;BME280;55187;49.496;6.010;2023-01-24T18:36:27;99215.66;;;-0.73;100.00
55079;BME280;55187;49.496;6.010;2023-01-24T18:38:54;99204.69;;;-0.97;100.00
55079;BME280;55187;49.496;6.010;2023-01-24T18:41:21;99212.66;;;-0.83;100.00
55079;BME280;55187;49.496;6.010;2023-01-24T18:43:48;99221.13;;;-0.97;100.00
55079;BME280;55187;49.496;6.010;2023-01-24T18:46:15;99209.53;;;-0.90;100.00
55079;BME280;55187;49.496;6.010;2023-01-24T18:48:42;99217.63;;;-0.96;100.00
55079;BME280;55187;49.496;6.010;2023-01-24T18:51:15;99210.13;;;-1.02;100.00
55079;BME280;55187;49.496;6.010;2023-01-24T18:53:43;99207.53;;;-1.02;100.00
55079;BME280;55187;49.496;6.010;2023-01-24T18:56:11;99213.09;;;-0.92;100.00
55079;BME280;55187;49.496;6.010;2023-01-24T18:58:38;99207.00;;;-0.91;100.00
55079;BME280;55187;49.496;6.010;2023-01-24T19:03:40;99208.00;;;-0.94;100.00
55079;BME280;55187;49.496;6.010;2023-01-24T19:06:07;99213.88;;;-0.90;100.00
55079;BME280;55187;49.496;6.010;2023-01-24T19:08:35;99206.97;;;-1.09;100.00
55079;BME280;55187;49.496;6.010;2023-01-24T19:11:09;99209.22;;;-1.01;100.00
55079;BME280;55187;49.496;6.010;2023-01-24T19:13:36;99219.34;;;-1.14;100.00
55079;BME280;55187;49.496;6.010;2023-01-24T19:16:03;99213.94;;;-1.09;100.00
55079;BME280;55187;49.496;6.010;2023-01-24T19:18:30;99209.28;;;-1.02;100.00
55079;BME280;55187;49.496;6.010;2023-01-24T19:20:56;99221.94;;;-1.14;100.00
55079;BME280;55187;49.496;6.010;2023-01-24T19:23:24;99224.72;;;-0.99;100.00
55079;BME280;55187;49.496;6.010;2023-01-24T19:25:51;99236.75;;;-1.16;100.00
55079;BME280;55187;49.496;6.010;2023-01-24T19:28:17;99224.09;;;-1.04;100.00
55079;BME280;55187;49.496;6.010;2023-01-24T19:30:44;99223.19;;;-1.03;100.00
55079;BME280;55187;49.496;6.010;2023-01-24T19:33:10;99231.56;;;-1.16;100.00
55079;BME280;55187;49.496;6.010;2023-01-24T19:35:37;99236.69;;;-1.14;100.00
55079;BME280;55187;49.496;6.010;2023-01-24T19:38:03;99234.03;;;-1.13;100.00
55079;BME280;55187;49.496;6.010;2023-01-24T19:40:30;99225.03;;;-1.06;100.00
55079;BME280;55187;49.496;6.010;2023-01-24T19:42:57;99237.16;;;-1.06;100.00
55079;BME280;55187;49.496;6.010;2023-01-24T19:45:24;99234.09;;;-1.14;100.00
55079;BME280;55187;49.496;6.010;2023-01-24T19:47:51;99240.19;;;-1.15;100.00
55079;BME280;55187;49.496;6.010;2023-01-24T19:50:20;99238.28;;;-1.12;100.00
55079;BME280;55187;49.496;6.010;2023-01-24T19:52:46;99227.47;;;-1.02;100.00
55079;BME280;55187;49.496;6.010;2023-01-24T19:55:13;99237.81;;;-1.20;100.00
55079;BME280;55187;49.496;6.010;2023-01-24T19:57:40;99235.00;;;-1.15;100.00
55079;BME280;55187;49.496;6.010;2023-01-24T20:00:07;99232.38;;;-1.15;100.00
55079;BME280;55187;49.496;6.010;2023-01-24T20:02:35;99240.19;;;-1.15;100.00
55079;BME280;55187;49.496;6.010;2023-01-24T20:05:02;99240.28;;;-1.17;100.00
55079;BME280;55187;49.496;6.010;2023-01-24T20:07:28;99244.69;;;-1.19;100.00
55079;BME280;55187;49.496;6.010;2023-01-24T20:09:54;99237.47;;;-1.12;100.00
55079;BME280;55187;49.496;6.010;2023-01-24T20:12:21;99241.13;;;-1.16;100.00
55079;BME280;55187;49.496;6.010;2023-01-24T20:14:47;99236.91;;;-1.19;100.00
55079;BME280;55187;49.496;6.010;2023-01-24T20:17:14;99241.25;;;-1.19;100.00